Time;durP1;ratioP1;P1;durP2;ratioP2;P2;SDS_P1;SDS_P2;PMS_P1;PMS_P2;Temp;Humidity;BMP_temperature;BMP_pressure;BME280_temperature;BME280_humidity;BME280_pressure;Samples;Min_cycle;Max_cycle;Signal;HPM_P1;HPM_P2
2022/04/28 00:00:54;;;;;;;4.80;3.20;;;8.50;99.90;;;;;;5055611;28;20129;-66
2022/04/28 00:03:20;;;;;;;4.22;3.40;;;8.60;99.90;;;;;;5053508;28;20070;-65
2022/04/28 00:05:46;;;;;;;7.72;3.58;;;8.50;99.90;;;;;;5054814;28;20054;-66
2022/04/28 00:08:12;;;;;;;7.95;2.97;;;8.60;99.90;;;;;;5055493;28;20047;-66
2022/04/28 00:10:39;;;;;;;7.43;3.75;;;8.60;99.90;;;;;;5057938;28;20088;-65
2022/04/28 00:13:06;;;;;;;12.43;4.43;;;8.60;99.90;;;;;;5054980;28;20505;-66
2022/04/28 00:15:32;;;;;;;4.88;3.22;;;8.60;99.90;;;;;;5056202;28;20101;-66
2022/04/28 00:17:58;;;;;;;7.60;4.03;;;8.60;99.90;;;;;;5057066;28;20040;-66
2022/04/28 00:20:24;;;;;;;3.50;3.05;;;8.60;99.90;;;;;;5054822;28;20044;-66
2022/04/28 00:22:49;;;;;;;3.47;2.80;;;8.60;99.90;;;;;;5056955;28;20048;-66
2022/04/28 00:25:15;;;;;;;8.05;2.90;;;8.60;99.90;;;;;;5058217;28;20047;-65
2022/04/28 00:27:40;;;;;;;5.38;2.83;;;8.50;99.90;;;;;;5053715;28;20044;-65
2022/04/28 00:30:07;;;;;;;4.82;2.78;;;8.60;99.90;;;;;;5057665;28;20041;-66
2022/04/28 00:32:34;;;;;;;4.07;2.42;;;8.60;99.90;;;;;;5056672;28;20040;-66
2022/04/28 00:35:00;;;;;;;4.22;2.95;;;8.60;99.90;;;;;;5054940;28;20054;-66
2022/04/28 00:37:26;;;;;;;3.55;2.78;;;7.90;99.90;;;;;;5057273;28;20040;-65
2022/04/28 00:39:52;;;;;;;8.93;3.10;;;8.60;99.90;;;;;;5053881;28;20054;-66
2022/04/28 00:42:19;;;;;;;5.47;2.83;;;8.60;99.90;;;;;;5055401;28;20159;-65
2022/04/28 00:44:46;;;;;;;7.30;3.28;;;8.60;99.90;;;;;;5056744;28;20044;-66
2022/04/28 00:47:12;;;;;;;4.53;2.90;;;8.70;99.90;;;;;;5055578;28;20040;-66
2022/04/28 00:52:23;;;;;;;3.50;2.40;;;8.60;99.90;;;;;;5054885;28;20059;-66
2022/04/28 00:54:53;;;;;;;6.70;2.60;;;8.70;99.90;;;;;;5053694;28;20040;-67
2022/04/28 00:57:19;;;;;;;5.03;2.67;;;8.70;99.90;;;;;;5053657;28;20080;-65
2022/04/28 00:59:46;;;;;;;7.35;2.72;;;8.70;99.90;;;;;;5055629;28;20048;-66
2022/04/28 01:02:12;;;;;;;9.75;3.30;;;8.80;99.90;;;;;;5054493;28;20424;-65
2022/04/28 01:04:39;;;;;;;3.85;3.03;;;8.80;99.90;;;;;;5059326;28;20105;-66
2022/04/28 01:07:06;;;;;;;8.35;2.78;;;8.80;99.90;;;;;;5059403;28;20047;-66
2022/04/28 01:09:37;;;;;;;3.45;3.08;;;8.80;99.90;;;;;;5059512;28;20047;-66
2022/04/28 01:12:07;;;;;;;6.88;2.60;;;8.80;99.90;;;;;;5057766;28;20052;-65
2022/04/28 01:14:33;;;;;;;3.92;3.10;;;8.80;99.90;;;;;;5058293;28;20479;-66
2022/04/28 01:17:00;;;;;;;4.05;2.80;;;8.80;99.90;;;;;;5055536;28;20608;-65
2022/04/28 01:19:26;;;;;;;4.97;2.85;;;8.90;99.90;;;;;;5057720;28;20048;-66
2022/04/28 01:21:52;;;;;;;3.55;3.25;;;8.90;99.90;;;;;;5058777;28;20039;-66
2022/04/28 01:24:18;;;;;;;6.60;2.95;;;8.90;99.90;;;;;;5056506;28;20052;-66
2022/04/28 01:26:45;;;;;;;4.50;2.60;;;8.90;99.90;;;;;;5056780;28;20114;-65
2022/04/28 01:29:10;;;;;;;4.30;3.20;;;8.90;99.90;;;;;;5057381;28;20829;-66
2022/04/28 01:31:36;;;;;;;7.95;3.60;;;8.90;99.90;;;;;;5058312;28;20048;-66
2022/04/28 01:34:01;;;;;;;4.93;2.45;;;9.00;99.90;;;;;;5057134;28;20055;-66
2022/04/28 01:36:28;;;;;;;8.65;3.65;;;9.00;99.90;;;;;;5056424;28;20044;-66
2022/04/28 01:38:53;;;;;;;6.78;3.15;;;9.00;99.90;;;;;;5058994;28;20049;-66
2022/04/28 01:41:19;;;;;;;5.45;2.50;;;9.00;99.90;;;;;;5058349;28;20052;-66
2022/04/28 01:43:45;;;;;;;6.85;3.60;;;9.00;99.90;;;;;;5056511;28;20171;-66
2022/04/28 01:46:11;;;;;;;5.25;3.42;;;9.10;99.90;;;;;;5057640;28;20052;-66
2022/04/28 01:48:37;;;;;;;5.03;2.65;;;9.20;99.90;;;;;;5059156;28;20093;-65
2022/04/28 01:56:31;;;;;;;6.70;3.10;;;9.20;99.90;;;;;;5054640;28;20872;-67
2022/04/28 01:58:57;;;;;;;6.88;3.35;;;9.20;99.90;;;;;;5057736;28;20083;-66
2022/04/28 02:01:23;;;;;;;3.97;2.47;;;9.20;99.90;;;;;;5058120;28;20044;-67
2022/04/28 02:03:48;;;;;;;3.20;2.67;;;9.20;99.90;;;;;;5057622;28;20190;-67
2022/04/28 02:06:14;;;;;;;4.18;2.63;;;9.10;99.90;;;;;;5055938;28;20070;-67
2022/04/28 02:08:39;;;;;;;6.10;3.20;;;9.10;99.90;;;;;;5056550;28;20048;-67
2022/04/28 02:11:06;;;;;;;5.45;2.83;;;9.10;99.90;;;;;;5054733;28;20597;-67
2022/04/28 02:13:32;;;;;;;6.90;2.92;;;9.10;99.90;;;;;;5055603;28;20041;-67
2022/04/28 02:15:57;;;;;;;5.10;2.92;;;9.00;99.90;;;;;;5055864;28;20067;-66
2022/04/28 02:18:23;;;;;;;4.45;2.70;;;8.90;99.90;;;;;;5057454;28;21417;-67
2022/04/28 02:20:48;;;;;;;5.45;2.90;;;8.90;99.90;;;;;;5055757;28;20338;-67
2022/04/28 02:23:14;;;;;;;7.25;3.60;;;8.90;99.90;;;;;;5055710;28;20482;-67
2022/04/28 02:25:40;;;;;;;5.20;3.28;;;8.90;99.90;;;;;;5056586;28;20048;-64
2022/04/28 02:28:06;;;;;;;9.05;2.90;;;8.90;99.90;;;;;;5055316;28;20056;-65
2022/04/28 02:30:31;;;;;;;4.20;2.75;;;8.80;99.90;;;;;;5056012;28;20047;-65
2022/04/28 02:33:09;;;;;;;5.20;2.95;;;8.80;99.90;;;;;;5055419;28;20049;-65
2022/04/28 02:35:35;;;;;;;4.90;2.70;;;8.80;99.90;;;;;;5057751;28;20075;-65
2022/04/28 02:38:00;;;;;;;9.43;3.10;;;8.80;99.90;;;;;;5057722;28;20044;-65
2022/04/28 02:40:26;;;;;;;5.72;2.88;;;9.20;99.90;;;;;;5056522;28;20604;-65
2022/04/28 02:42:52;;;;;;;6.47;2.95;;;8.90;99.90;;;;;;5055490;28;20210;-65
2022/04/28 02:45:17;;;;;;;3.40;2.55;;;8.90;99.90;;;;;;5055706;28;20052;-64
2022/04/28 02:47:46;;;;;;;3.20;2.53;;;8.90;99.90;;;;;;5056165;28;20048;-65
2022/04/28 02:50:12;;;;;;;4.05;3.00;;;8.90;99.90;;;;;;5055903;28;20605;-65
2022/04/28 02:52:38;;;;;;;6.05;3.20;;;9.00;99.90;;;;;;5050084;28;21138;-65
2022/04/28 02:55:04;;;;;;;8.48;3.33;;;9.00;99.90;;;;;;5056086;28;20048;-65
2022/04/28 02:57:30;;;;;;;3.60;2.78;;;9.00;99.90;;;;;;5057362;28;20032;-65
2022/04/28 02:59:57;;;;;;;3.78;2.78;;;9.00;99.90;;;;;;5058832;28;20036;-64
2022/04/28 03:02:24;;;;;;;8.38;4.35;;;8.90;99.90;;;;;;5053312;28;20072;-65
2022/04/28 03:04:49;;;;;;;5.28;3.17;;;8.90;99.90;;;;;;5057557;28;20052;-65
2022/04/28 03:12:44;;;;;;;5.05;2.97;;;8.90;99.90;;;;;;5055452;28;20051;-65
2022/04/28 03:15:10;;;;;;;4.25;2.95;;;9.00;99.90;;;;;;5057087;28;20657;-65
2022/04/28 03:17:36;;;;;;;3.67;2.58;;;9.00;99.90;;;;;;5057638;28;20157;-65
2022/04/28 03:20:03;;;;;;;4.13;3.28;;;9.00;99.90;;;;;;5057666;28;20052;-65
2022/04/28 03:22:29;;;;;;;4.75;3.45;;;9.00;99.90;;;;;;5057098;28;20040;-65
2022/04/28 03:24:54;;;;;;;5.93;3.13;;;9.00;99.90;;;;;;5055916;28;20196;-65
2022/04/28 03:27:20;;;;;;;4.07;3.25;;;9.10;99.90;;;;;;5056504;28;20127;-65
2022/04/28 03:29:45;;;;;;;4.82;2.78;;;9.10;99.90;;;;;;5056468;28;20119;-65
2022/04/28 03:32:11;;;;;;;7.07;3.13;;;9.10;99.90;;;;;;5056194;28;20908;-65
2022/04/28 03:34:36;;;;;;;4.95;2.67;;;9.20;99.90;;;;;;5058291;28;20368;-66
2022/04/28 03:37:03;;;;;;;3.75;3.17;;;9.20;99.90;;;;;;5057300;28;20090;-66
2022/04/28 03:39:29;;;;;;;5.72;3.40;;;9.20;99.90;;;;;;5057616;28;20049;-66
2022/04/28 03:41:54;;;;;;;4.05;2.63;;;9.30;99.90;;;;;;5057895;28;20059;-66
2022/04/28 03:44:20;;;;;;;3.78;2.22;;;9.30;99.90;;;;;;5055246;28;20044;-65
2022/04/28 03:46:46;;;;;;;4.80;3.25;;;9.20;99.90;;;;;;5057146;28;20051;-65
2022/04/28 03:49:11;;;;;;;4.07;2.13;;;9.30;99.90;;;;;;5055524;28;20044;-66
2022/04/28 03:51:37;;;;;;;5.10;2.47;;;9.30;99.90;;;;;;5057108;28;20056;-66
2022/04/28 03:54:03;;;;;;;9.45;3.25;;;9.30;99.90;;;;;;5057219;28;20159;-66
2022/04/28 03:56:31;;;;;;;9.23;3.20;;;9.30;99.90;;;;;;5054545;28;20041;-65
2022/04/28 03:59:01;;;;;;;7.22;3.75;;;9.30;99.90;;;;;;5055982;28;20063;-66
2022/04/28 04:01:27;;;;;;;4.03;2.30;;;9.30;99.90;;;;;;5056066;28;20777;-66
2022/04/28 04:03:53;;;;;;;4.45;2.78;;;9.30;99.90;;;;;;5054462;28;20048;-66
2022/04/28 04:06:19;;;;;;;9.38;3.50;;;9.20;99.90;;;;;;5056620;28;20632;-66
2022/04/28 04:08:45;;;;;;;5.05;3.42;;;9.30;99.90;;;;;;5057963;28;20078;-66
2022/04/28 04:11:12;;;;;;;3.38;2.60;;;9.30;99.90;;;;;;5055588;28;20106;-66
2022/04/28 04:13:38;;;;;;;5.90;3.92;;;9.30;99.90;;;;;;5056199;28;20048;-66
2022/04/28 04:16:04;;;;;;;4.60;3.22;;;9.30;99.90;;;;;;5056749;28;20131;-66
2022/04/28 04:18:30;;;;;;;9.80;3.05;;;9.30;99.90;;;;;;5057191;28;20826;-66
2022/04/28 04:20:56;;;;;;;3.90;2.83;;;9.30;99.90;;;;;;5061125;28;20044;-66
2022/04/28 04:23:22;;;;;;;3.55;2.88;;;9.30;99.90;;;;;;5060990;28;20060;-66
2022/04/28 04:25:47;;;;;;;8.15;2.92;;;9.30;99.90;;;;;;5060529;28;20048;-66
2022/04/28 04:28:13;;;;;;;3.60;2.80;;;9.30;99.90;;;;;;5060762;28;20165;-66
2022/04/28 04:33:23;;;;;;;4.78;2.92;;;9.30;99.90;;;;;;5059492;28;20052;-66
2022/04/28 04:35:48;;;;;;;4.22;2.60;;;9.30;99.90;;;;;;5060222;28;20645;-66
2022/04/28 04:38:14;;;;;;;5.68;3.38;;;9.30;99.90;;;;;;5060066;28;20043;-66
2022/04/28 04:40:39;;;;;;;6.95;3.20;;;9.30;99.90;;;;;;5059723;28;20044;-65
2022/04/28 04:43:09;;;;;;;6.43;3.50;;;9.30;99.90;;;;;;5060659;28;20047;-65
2022/04/28 04:45:34;;;;;;;12.50;3.10;;;9.30;99.90;;;;;;5064158;28;20044;-65
2022/04/28 04:48:00;;;;;;;5.15;2.80;;;9.30;99.90;;;;;;5059474;28;20043;-66
2022/04/28 04:50:26;;;;;;;6.53;3.35;;;9.30;99.90;;;;;;5059744;28;20048;-66
2022/04/28 04:52:51;;;;;;;5.97;3.20;;;9.40;99.90;;;;;;5058628;28;20128;-65
2022/04/28 04:55:17;;;;;;;6.50;3.15;;;9.30;99.90;;;;;;5060009;28;20165;-66
2022/04/28 04:57:43;;;;;;;7.57;3.38;;;9.40;99.90;;;;;;5059116;28;20056;-65
2022/04/28 05:00:09;;;;;;;4.28;3.10;;;9.40;99.90;;;;;;5059895;28;20044;-65
2022/04/28 05:02:34;;;;;;;6.15;3.05;;;9.40;99.90;;;;;;5059346;28;20074;-66
2022/04/28 05:05:00;;;;;;;5.88;3.00;;;9.40;99.90;;;;;;5059297;28;20047;-66
2022/04/28 05:07:30;;;;;;;5.03;3.45;;;9.30;99.90;;;;;;5058345;28;20141;-65
2022/04/28 05:09:55;;;;;;;7.80;3.90;;;9.30;99.90;;;;;;5055902;28;20062;-65
2022/04/28 05:12:21;;;;;;;8.07;3.97;;;9.30;99.90;;;;;;5059359;28;20825;-65
2022/04/28 05:14:47;;;;;;;8.25;4.07;;;9.20;99.90;;;;;;5058511;28;20040;-66
2022/04/28 05:17:12;;;;;;;7.38;3.30;;;9.20;99.90;;;;;;5058973;28;20072;-66
2022/04/28 05:19:38;;;;;;;6.07;3.60;;;9.10;99.90;;;;;;5058732;28;20152;-65
2022/04/28 05:22:03;;;;;;;7.82;4.10;;;9.20;99.90;;;;;;5058573;28;20168;-65
2022/04/28 05:24:29;;;;;;;5.35;3.53;;;9.20;99.90;;;;;;5056682;28;20048;-65
2022/04/28 05:26:54;;;;;;;5.88;4.00;;;9.10;99.90;;;;;;5057995;28;20046;-65
2022/04/28 05:29:20;;;;;;;6.72;3.38;;;9.20;99.90;;;;;;5053983;28;20044;-65
2022/04/28 05:31:46;;;;;;;8.15;3.50;;;9.20;99.90;;;;;;5054103;28;20768;-65
2022/04/28 05:34:11;;;;;;;5.40;3.40;;;9.20;99.90;;;;;;5056611;28;20642;-65
2022/04/28 05:36:38;;;;;;;4.68;3.97;;;9.20;99.90;;;;;;5054865;28;20060;-66
2022/04/28 05:39:04;;;;;;;9.82;4.13;;;9.20;99.90;;;;;;5056822;28;20133;-65
2022/04/28 05:41:30;;;;;;;7.20;4.30;;;9.20;99.90;;;;;;5054746;28;20056;-66
2022/04/28 05:46:39;;;;;;;4.60;3.58;;;9.20;99.90;;;;;;5055456;28;20060;-65
2022/04/28 05:49:06;;;;;;;6.35;3.60;;;9.30;99.90;;;;;;5054547;28;20048;-65
2022/04/28 05:51:32;;;;;;;7.55;3.75;;;9.30;99.90;;;;;;5056239;28;20040;-65
2022/04/28 05:53:57;;;;;;;6.22;3.00;;;9.40;99.90;;;;;;5054305;28;20059;-65
2022/04/28 05:56:23;;;;;;;6.55;3.60;;;9.40;99.90;;;;;;5053662;28;20082;-66
2022/04/28 05:58:49;;;;;;;6.40;4.13;;;9.50;99.90;;;;;;5054848;28;20044;-66
2022/04/28 06:01:14;;;;;;;8.77;3.55;;;9.50;99.90;;;;;;5054882;28;20052;-66
2022/04/28 06:03:41;;;;;;;11.45;4.00;;;9.60;99.90;;;;;;5055225;28;20063;-66
2022/04/28 06:06:10;;;;;;;5.38;3.65;;;9.60;99.90;;;;;;5054913;28;20826;-66
2022/04/28 06:08:36;;;;;;;4.95;2.55;;;9.60;99.90;;;;;;5055472;28;20127;-66
2022/04/28 06:11:02;;;;;;;6.60;3.55;;;9.70;99.90;;;;;;5055513;28;20044;-66
2022/04/28 06:13:30;;;;;;;8.70;3.25;;;9.70;99.90;;;;;;5055586;28;20048;-66
2022/04/28 06:15:56;;;;;;;4.85;2.83;;;9.80;99.90;;;;;;5053544;28;20051;-66
2022/04/28 06:18:22;;;;;;;5.97;3.08;;;9.80;99.90;;;;;;5054680;28;20052;-65
2022/04/28 06:20:47;;;;;;;7.68;3.47;;;9.90;99.90;;;;;;5054277;28;20048;-65
2022/04/28 06:23:13;;;;;;;9.05;3.05;;;10.00;99.90;;;;;;5054207;28;20067;-65
2022/04/28 06:25:39;;;;;;;5.95;3.35;;;10.10;99.90;;;;;;5052559;28;20040;-64
2022/04/28 06:28:05;;;;;;;5.30;2.65;;;10.10;99.90;;;;;;5053994;28;20757;-65
2022/04/28 06:30:31;;;;;;;4.53;2.80;;;10.20;99.90;;;;;;5055477;28;20048;-65
2022/04/28 06:32:56;;;;;;;6.47;2.75;;;10.20;99.90;;;;;;5052166;28;20040;-65
2022/04/28 06:35:22;;;;;;;7.65;2.80;;;10.20;99.90;;;;;;5052818;28;20159;-65
2022/04/28 06:37:47;;;;;;;5.07;2.90;;;10.10;99.90;;;;;;5051289;28;20079;-65
2022/04/28 06:40:13;;;;;;;5.63;3.15;;;9.90;99.90;;;;;;5050695;28;20047;-65
2022/04/28 06:42:43;;;;;;;4.72;2.45;;;9.90;99.90;;;;;;5053105;28;20129;-65
2022/04/28 06:45:10;;;;;;;3.67;2.28;;;10.00;99.90;;;;;;5051220;28;20053;-65
2022/04/28 06:47:36;;;;;;;3.92;3.42;;;10.10;99.90;;;;;;5049032;28;20132;-65
2022/04/28 06:50:01;;;;;;;3.35;2.33;;;10.20;99.90;;;;;;5054192;28;20044;-65
2022/04/28 06:52:27;;;;;;;5.82;2.17;;;10.20;99.90;;;;;;5056759;28;20132;-65
2022/04/28 06:54:53;;;;;;;4.75;2.90;;;10.40;99.90;;;;;;5059856;28;20106;-65
2022/04/28 06:57:19;;;;;;;6.55;2.58;;;10.50;99.90;;;;;;5050882;28;20053;-65
2022/04/28 06:59:44;;;;;;;7.85;3.30;;;10.40;99.90;;;;;;5049843;28;20049;-65
2022/04/28 07:02:10;;;;;;;8.10;2.63;;;10.50;99.90;;;;;;5070421;28;20051;-66
2022/04/28 07:04:36;;;;;;;4.80;2.70;;;10.50;99.90;;;;;;5068595;28;21002;-65
2022/04/28 07:07:01;;;;;;;4.00;2.15;;;10.70;99.90;;;;;;5057172;28;20051;-65
2022/04/28 07:09:27;;;;;;;6.47;2.55;;;10.70;99.90;;;;;;5056467;28;20055;-66
2022/04/28 07:11:52;;;;;;;3.78;2.47;;;10.90;99.90;;;;;;5051903;28;20105;-65
2022/04/28 07:14:18;;;;;;;5.00;2.40;;;11.20;99.90;;;;;;5057499;28;20869;-65
2022/04/28 07:16:43;;;;;;;4.38;2.45;;;12.10;99.90;;;;;;5052394;28;20056;-65
2022/04/28 07:19:09;;;;;;;5.35;2.63;;;12.80;99.40;;;;;;5052705;28;20063;-66
2022/04/28 07:21:35;;;;;;;6.82;2.80;;;13.70;99.90;;;;;;5052331;28;20051;-66
2022/04/28 07:24:01;;;;;;;3.95;2.53;;;13.70;99.90;;;;;;5052353;28;20044;-65
2022/04/28 07:26:28;;;;;;;8.90;2.72;;;13.90;99.90;;;;;;5052201;28;20040;-66
2022/04/28 07:28:54;;;;;;;5.60;2.50;;;12.70;99.50;;;;;;5052609;28;20072;-65
2022/04/28 07:31:19;;;;;;;6.53;2.45;;;12.10;99.70;;;;;;5054682;28;20159;-65
2022/04/28 07:33:45;;;;;;;4.32;2.55;;;11.70;98.50;;;;;;5055032;28;20072;-65
2022/04/28 07:36:12;;;;;;;6.55;2.35;;;11.40;99.90;;;;;;5053198;28;20058;-65
2022/04/28 07:38:38;;;;;;;3.53;1.95;;;11.50;99.90;;;;;;5052971;28;20075;-65
2022/04/28 07:41:04;;;;;;;5.45;2.00;;;11.70;99.90;;;;;;5053166;28;20056;-65
2022/04/28 07:43:30;;;;;;;6.07;1.95;;;11.80;99.90;;;;;;5055675;28;20036;-66
2022/04/28 07:45:55;;;;;;;5.80;2.33;;;12.20;99.70;;;;;;5054137;28;20105;-66
2022/04/28 07:48:21;;;;;;;4.63;1.83;;;12.90;98.60;;;;;;5054637;28;20053;-65
2022/04/28 07:50:47;;;;;;;6.10;2.38;;;13.20;96.90;;;;;;5055551;28;20159;-61
2022/04/28 07:53:13;;;;;;;4.43;1.60;;;13.00;95.20;;;;;;5054714;28;20594;-64
2022/04/28 07:55:39;;;;;;;4.63;1.90;;;12.70;96.70;;;;;;5059983;28;20044;-64
2022/04/28 07:58:04;;;;;;;8.40;2.20;;;12.50;96.50;;;;;;5059337;28;20053;-63
2022/04/28 08:00:30;;;;;;;4.07;1.95;;;12.10;94.90;;;;;;5057427;28;20040;-64
2022/04/28 08:02:55;;;;;;;4.28;1.73;;;12.70;96.10;;;;;;5058863;28;20040;-64
2022/04/28 08:05:21;;;;;;;2.83;2.00;;;13.00;96.20;;;;;;5059507;28;20101;-63
2022/04/28 08:07:47;;;;;;;3.33;1.92;;;12.70;96.40;;;;;;5059815;28;20604;-65
2022/04/28 08:10:12;;;;;;;5.65;2.40;;;12.70;96.10;;;;;;5056979;28;20071;-65
2022/04/28 08:12:38;;;;;;;6.70;2.28;;;12.60;96.40;;;;;;5057091;28;20055;-65
2022/04/28 08:15:04;;;;;;;3.30;3.00;;;12.20;97.20;;;;;;5056830;28;20051;-65
2022/04/28 08:17:30;;;;;;;6.22;2.90;;;12.60;97.80;;;;;;5059631;28;22092;-65
2022/04/28 08:19:55;;;;;;;7.68;3.00;;;12.60;97.10;;;;;;5059296;28;20055;-65
2022/04/28 08:22:21;;;;;;;5.57;2.05;;;12.30;97.10;;;;;;5059003;28;20059;-65
2022/04/28 08:24:47;;;;;;;4.57;2.33;;;12.30;98.20;;;;;;5057856;28;20048;-66
2022/04/28 08:27:12;;;;;;;5.93;2.22;;;12.30;98.40;;;;;;5055907;28;20053;-65
2022/04/28 08:29:38;;;;;;;5.38;2.45;;;12.20;98.00;;;;;;5055468;28;20048;-64
2022/04/28 08:32:04;;;;;;;5.85;2.22;;;12.30;98.40;;;;;;5056003;28;20135;-64
2022/04/28 08:34:30;;;;;;;6.22;2.22;;;12.60;98.10;;;;;;5056976;28;20498;-65
2022/04/28 08:36:55;;;;;;;3.05;1.90;;;13.60;97.30;;;;;;5056420;28;20476;-64
2022/04/28 08:39:21;;;;;;;3.65;1.83;;;14.60;95.70;;;;;;5053373;28;20049;-64
2022/04/28 08:41:47;;;;;;;4.53;2.40;;;14.90;92.00;;;;;;5052443;28;20154;-65
2022/04/28 08:44:23;;;;;;;3.70;1.50;;;15.70;92.90;;;;;;5052914;28;20039;-65
2022/04/28 08:46:52;;;;;;;5.20;2.20;;;16.80;90.70;;;;;;5056861;28;20056;-65
2022/04/28 08:49:27;;;;;;;4.05;2.10;;;16.80;92.30;;;;;;5056512;28;20048;-65
2022/04/28 08:51:55;;;;;;;8.57;2.13;;;16.90;87.80;;;;;;5056865;28;20043;-65
2022/04/28 08:54:23;;;;;;;4.97;1.98;;;16.00;92.10;;;;;;5055910;28;20040;-65
2022/04/28 08:56:50;;;;;;;5.20;3.17;;;16.00;92.50;;;;;;5056174;28;20086;-65
2022/04/28 08:59:16;;;;;;;6.50;2.47;;;15.80;90.80;;;;;;5053070;28;20049;-65
2022/04/28 09:01:42;;;;;;;4.15;2.10;;;15.90;90.00;;;;;;5056576;28;20055;-65
2022/04/28 09:04:10;;;;;;;5.60;2.20;;;15.90;90.50;;;;;;5054231;28;20052;-66
2022/04/28 09:06:37;;;;;;;4.90;2.15;;;16.00;92.00;;;;;;5055946;28;20493;-66
2022/04/28 09:09:15;;;;;;;8.68;2.25;;;16.70;92.00;;;;;;5056018;28;20125;-66
2022/04/28 09:11:42;;;;;;;7.82;2.58;;;17.00;90.90;;;;;;5055897;28;20039;-65
2022/04/28 09:14:20;;;;;;;7.05;4.05;;;16.40;91.40;;;;;;5054448;28;20055;-66
2022/04/28 09:16:56;;;;;;;5.68;2.90;;;15.50;88.90;;;;;;5056077;28;20067;-65
2022/04/28 09:19:27;;;;;;;5.90;2.78;;;15.10;90.30;;;;;;5057281;28;20056;-65
2022/04/28 09:22:02;;;;;;;2.80;2.35;;;14.70;91.50;;;;;;5053728;28;20191;-65
2022/04/28 09:24:28;;;;;;;3.90;2.70;;;14.10;91.10;;;;;;5056900;28;20044;-65
2022/04/28 09:26:55;;;;;;;7.13;3.10;;;13.60;92.40;;;;;;5057090;28;20043;-65
2022/04/28 09:29:23;;;;;;;4.30;3.10;;;13.00;93.40;;;;;;5050104;28;20048;-65
2022/04/28 09:31:51;;;;;;;6.32;3.83;;;13.10;94.10;;;;;;5055742;28;20054;-64
2022/04/28 09:34:18;;;;;;;5.75;3.03;;;13.00;93.90;;;;;;5057359;28;20811;-63
2022/04/28 09:36:45;;;;;;;5.70;3.40;;;13.10;93.60;;;;;;5055769;28;20822;-64
2022/04/28 09:42:31;;;;;;;6.05;4.57;;;13.00;94.00;;;;;;5055844;28;20091;-64
2022/04/28 09:44:58;;;;;;;5.14;4.18;;;13.20;93.90;;;;;;4706995;28;10000637;-64
2022/04/28 09:47:25;;;;;;;8.65;4.07;;;13.30;93.60;;;;;;5050032;28;20050;-64
2022/04/28 09:49:57;;;;;;;6.07;3.85;;;13.30;93.10;;;;;;5047015;28;20043;-64
2022/04/28 09:52:26;;;;;;;8.02;3.15;;;13.30;93.10;;;;;;5050515;28;20059;-64
2022/04/28 09:54:54;;;;;;;5.82;3.22;;;13.20;93.30;;;;;;5051209;28;20060;-63
2022/04/28 09:57:20;;;;;;;9.65;3.35;;;12.90;93.20;;;;;;5048631;28;20130;-64
2022/04/28 09:59:48;;;;;;;5.18;3.35;;;12.80;93.60;;;;;;5048285;28;20040;-64
2022/04/28 10:02:16;;;;;;;7.57;3.40;;;12.90;94.10;;;;;;5052433;28;20060;-64
2022/04/28 10:04:42;;;;;;;9.88;4.40;;;12.80;94.40;;;;;;5044334;28;20128;-64
2022/04/28 10:07:09;;;;;;;8.93;3.35;;;12.70;94.60;;;;;;5053968;28;20222;-64
2022/04/28 10:09:37;;;;;;;11.15;4.15;;;12.60;94.50;;;;;;5040577;28;20052;-64
2022/04/28 10:12:05;;;;;;;9.88;4.00;;;12.30;95.00;;;;;;5030746;28;20079;-63
2022/04/28 10:14:33;;;;;;;6.85;3.33;;;12.40;95.50;;;;;;5038828;28;20154;-63
2022/04/28 10:17:01;;;;;;;8.20;3.78;;;12.30;95.60;;;;;;5039122;28;20052;-64
2022/04/28 10:19:34;;;;;;;11.38;4.90;;;12.30;95.30;;;;;;5041884;28;20044;-63
2022/04/28 10:22:04;;;;;;;;;;;12.10;94.80;;;;;;5042858;28;20046;-63
2022/04/28 10:33:04;;;;;;;8.07;3.80;;;12.50;94.90;;;;;;5040998;28;20044;-63
2022/04/28 10:36:01;;;;;;;7.88;2.70;;;12.50;94.60;;;;;;5049022;28;20953;-63
2022/04/28 10:38:31;;;;;;;8.10;2.97;;;12.60;95.50;;;;;;5045302;28;20155;-64
2022/04/28 10:41:04;;;;;;;5.32;2.88;;;12.90;94.90;;;;;;5043848;28;20039;-63
2022/04/28 10:43:33;;;;;;;9.68;3.20;;;13.00;94.80;;;;;;5043812;28;20040;-63
2022/04/28 10:46:22;;;;;;;8.57;3.08;;;13.10;95.10;;;;;;5042557;28;20544;-64
2022/04/28 10:48:52;;;;;;;5.75;2.92;;;13.30;95.30;;;;;;5044487;28;20079;-64
2022/04/28 10:51:20;;;;;;;5.78;3.00;;;13.60;93.90;;;;;;5042842;28;20059;-64
2022/04/28 10:54:05;;;;;;;7.78;2.70;;;13.60;94.40;;;;;;5043899;28;20044;-64
2022/04/28 10:56:55;;;;;;;4.13;3.13;;;13.60;94.10;;;;;;5046381;28;20131;-63
2022/04/28 10:59:29;;;;;;;6.25;3.22;;;13.50;94.60;;;;;;5043405;28;20052;-63
2022/04/28 11:02:21;;;;;;;7.55;3.35;;;13.40;94.60;;;;;;5042032;28;20057;-63
2022/04/28 11:05:01;;;;;;;10.27;3.30;;;13.20;93.90;;;;;;5032449;28;20563;-64
2022/04/28 11:07:29;;;;;;;6.15;3.10;;;13.10;94.60;;;;;;5039294;28;20152;-64
2022/04/28 11:10:03;;;;;;;7.43;2.85;;;13.40;95.10;;;;;;5042501;28;20881;-65
2022/04/28 11:12:34;;;;;;;9.38;2.88;;;13.60;94.60;;;;;;5044658;28;20400;-65
2022/04/28 11:15:03;;;;;;;8.90;3.30;;;13.60;94.30;;;;;;5047881;28;20044;-63
2022/04/28 11:17:31;;;;;;;8.85;3.22;;;13.00;94.30;;;;;;5044590;28;20052;-65
2022/04/28 11:20:01;;;;;;;6.35;3.08;;;13.10;95.00;;;;;;5045409;28;20049;-63
2022/04/28 11:22:28;;;;;;;5.70;2.85;;;13.10;94.60;;;;;;5043990;28;20802;-63
2022/04/28 11:24:56;;;;;;;7.40;3.20;;;13.40;94.50;;;;;;5042651;28;20041;-65
2022/04/28 11:27:29;;;;;;;3.20;2.33;;;13.50;94.40;;;;;;5043794;28;20056;-65
2022/04/28 11:29:57;;;;;;;7.80;3.38;;;13.50;94.80;;;;;;5054311;28;20036;-64
2022/04/28 11:32:23;;;;;;;6.00;3.40;;;13.30;93.80;;;;;;5051064;28;20036;-64
2022/04/28 11:34:50;;;;;;;7.45;3.45;;;12.90;93.90;;;;;;5048628;28;20153;-64
2022/04/28 11:37:22;;;;;;;5.72;3.63;;;13.00;94.60;;;;;;5051759;28;20102;-64
2022/04/28 11:39:50;;;;;;;5.80;2.90;;;13.00;94.20;;;;;;5049286;28;20055;-64
2022/04/28 11:42:16;;;;;;;9.07;4.40;;;12.90;94.60;;;;;;5047599;28;20041;-64
2022/04/28 11:44:46;;;;;;;5.18;3.00;;;13.10;95.10;;;;;;5048595;28;20049;-64
2022/04/28 11:47:12;;;;;;;7.07;3.10;;;13.30;95.00;;;;;;5048876;28;20051;-65
2022/04/28 11:49:40;;;;;;;6.15;2.95;;;13.40;94.60;;;;;;5047643;28;20072;-65
2022/04/28 11:52:31;;;;;;;4.32;3.13;;;13.40;94.40;;;;;;5049206;28;20131;-64
2022/04/28 11:55:08;;;;;;;10.25;3.17;;;13.30;93.80;;;;;;5036951;28;20059;-64
2022/04/28 11:57:39;;;;;;;7.72;3.05;;;13.40;94.10;;;;;;5048229;28;20055;-65
2022/04/28 12:00:10;;;;;;;5.65;2.90;;;13.50;94.50;;;;;;5048285;28;20052;-64
2022/04/28 12:02:36;;;;;;;6.75;3.22;;;13.30;94.80;;;;;;5045715;28;20750;-64
2022/04/28 12:05:06;;;;;;;5.78;2.97;;;13.00;95.00;;;;;;5047304;28;20075;-64
2022/04/28 12:07:34;;;;;;;3.65;2.95;;;12.80;94.80;;;;;;5053998;28;20242;-65
2022/04/28 12:15:32;;;;;;;6.13;2.97;;;13.20;95.60;;;;;;5051247;28;20060;-65
2022/04/28 12:21:02;;;;;;;7.35;3.15;;;13.10;95.60;;;;;;5051383;28;20151;-66
2022/04/28 12:23:39;;;;;;;6.57;3.25;;;13.00;95.00;;;;;;5048716;28;20938;-65
2022/04/28 12:26:07;;;;;;;6.18;2.90;;;12.90;95.10;;;;;;5048325;28;20139;-64
2022/04/28 12:28:40;;;;;;;9.15;3.20;;;12.90;95.80;;;;;;5047442;28;20047;-64
2022/04/28 12:31:11;;;;;;;4.88;3.10;;;12.80;95.90;;;;;;5047012;28;20052;-64
2022/04/28 12:33:39;;;;;;;7.00;3.08;;;12.80;95.70;;;;;;5047554;28;20043;-65
2022/04/28 12:36:07;;;;;;;5.72;3.80;;;12.80;96.00;;;;;;5046873;28;20045;-62
2022/04/28 12:38:34;;;;;;;4.63;3.00;;;13.10;95.90;;;;;;5053060;28;20052;-64
2022/04/28 12:41:22;;;;;;;7.43;3.33;;;13.00;95.50;;;;;;5047816;28;20099;-64
2022/04/28 12:43:57;;;;;;;14.02;3.30;;;12.90;95.50;;;;;;5047950;28;20040;-64
2022/04/28 12:46:32;;;;;;;6.88;3.58;;;12.80;95.70;;;;;;5045727;28;20807;-65
2022/04/28 12:49:01;;;;;;;9.27;3.45;;;12.90;95.80;;;;;;5047791;28;20177;-64
2022/04/28 12:51:27;;;;;;;9.35;3.60;;;12.70;95.60;;;;;;5052474;28;20058;-64
2022/04/28 12:53:54;;;;;;;5.68;3.50;;;12.70;95.40;;;;;;5053387;28;20781;-65
2022/04/28 12:56:29;;;;;;;4.25;3.13;;;13.10;95.50;;;;;;5046151;28;20040;-65
2022/04/28 12:58:58;;;;;;;7.15;3.10;;;13.10;94.90;;;;;;5044912;28;20588;-64
2022/04/28 13:01:24;;;;;;;8.07;3.80;;;12.90;95.10;;;;;;5046800;28;20040;-64
2022/04/28 13:04:17;;;;;;;7.32;3.30;;;12.80;95.40;;;;;;5047050;28;20060;-64
2022/04/28 13:06:44;;;;;;;7.15;3.85;;;13.00;95.60;;;;;;5038170;28;20496;-64
2022/04/28 13:09:10;;;;;;;3.42;2.78;;;13.00;95.50;;;;;;5046732;28;20083;-64
2022/04/28 13:11:40;;;;;;;5.45;2.90;;;13.10;95.50;;;;;;5044877;28;20621;-64
2022/04/28 13:14:11;;;;;;;6.50;3.03;;;13.00;95.30;;;;;;5045936;28;20078;-64
2022/04/28 13:16:38;;;;;;;6.50;2.83;;;13.00;95.20;;;;;;5046698;28;20087;-65
2022/04/28 13:19:04;;;;;;;4.50;2.60;;;13.50;95.10;;;;;;5044571;28;20040;-65
2022/04/28 13:21:31;;;;;;;7.82;3.30;;;13.30;94.40;;;;;;5044523;28;20309;-64
2022/04/28 13:23:57;;;;;;;7.03;3.05;;;13.00;94.40;;;;;;5046213;28;20150;-64
2022/04/28 13:26:24;;;;;;;7.47;3.45;;;12.90;95.50;;;;;;5046321;28;20056;-64
2022/04/28 13:28:52;;;;;;;5.43;3.13;;;12.80;96.00;;;;;;5046070;28;20048;-64
2022/04/28 13:31:19;;;;;;;6.18;3.47;;;12.90;95.90;;;;;;5049382;28;20170;-64